Time;durP1;ratioP1;P1;durP2;ratioP2;P2;SDS_P1;SDS_P2;PMS_P1;PMS_P2;Temp;Humidity;BMP_temperature;BMP_pressure;BME280_temperature;BME280_humidity;BME280_pressure;Samples;Min_cycle;Max_cycle;Signal;HPM_P1;HPM_P2
2022/10/22 00:00:16;;;;;;;34.08;16.92;;;;;;;15.93;100.00;99285.41;5169894;27;20030;-93
2022/10/22 00:02:42;;;;;;;29.50;15.32;;;;;;;15.85;100.00;99274.13;5162958;27;20587;-93
2022/10/22 00:05:09;;;;;;;36.03;16.45;;;;;;;15.88;100.00;99265.97;5167801;27;20045;-93
2022/10/22 00:07:35;;;;;;;35.22;16.90;;;;;;;15.78;100.00;99263.63;5167172;27;20041;-92
2022/10/22 00:10:04;;;;;;;32.70;16.30;;;;;;;15.75;100.00;99274.50;5168651;27;20039;-95
2022/10/22 00:12:29;;;;;;;;;;;;;;;15.89;100.00;99291.84;5163658;27;20054;-91
2022/10/22 00:14:55;;;;;;;36.72;16.38;;;;;;;15.82;100.00;99281.34;5166788;27;19923;-94
2022/10/22 00:17:21;;;;;;;33.22;16.05;;;;;;;15.82;100.00;99270.63;5168216;27;20034;-92
2022/10/22 00:19:47;;;;;;;33.28;17.23;;;;;;;15.74;100.00;99256.66;5171337;27;20395;-94
2022/10/22 00:22:13;;;;;;;34.65;17.27;;;;;;;15.80;100.00;99267.13;5169162;27;20374;-92
2022/10/22 00:24:39;;;;;;;33.35;17.40;;;;;;;15.87;100.00;99274.94;5165512;27;20098;-94
2022/10/22 00:27:08;;;;;;;37.63;17.48;;;;;;;15.88;100.00;99266.81;5168231;27;20420;-92
2022/10/22 00:29:35;;;;;;;35.65;17.35;;;;;;;15.90;100.00;99264.09;5165015;27;20062;-93
2022/10/22 00:32:01;;;;;;;35.38;17.88;;;;;;;15.98;100.00;99275.34;5166959;27;20667;-93
2022/10/22 00:34:27;;;;;;;34.80;17.73;;;;;;;15.94;100.00;99247.81;5163515;27;20507;-92
2022/10/22 00:36:53;;;;;;;32.03;16.13;;;;;;;15.99;100.00;99255.66;5170462;27;20118;-93
2022/10/22 00:39:21;;;;;;;35.78;17.60;;;;;;;15.97;100.00;99249.47;5161421;27;20130;-92
2022/10/22 00:41:48;;;;;;;36.22;16.70;;;;;;;15.96;100.00;99266.50;5169061;27;20098;-93
2022/10/22 00:44:51;;;;;;;35.10;17.05;;;;;;;16.00;100.00;99268.13;5164579;27;20562;-90
2022/10/22 00:47:19;;;;;;;32.53;17.20;;;;;;;15.99;100.00;99269.94;5168576;27;20019;-93
2022/10/22 00:49:46;;;;;;;33.60;16.77;;;;;;;16.00;100.00;99285.13;5169233;27;20039;-93
2022/10/22 00:52:13;;;;;;;35.58;17.00;;;;;;;15.96;100.00;99274.53;5161937;27;20100;-94
2022/10/22 00:54:40;;;;;;;37.58;17.63;;;;;;;15.93;100.00;99266.63;5168986;27;20133;-93
2022/10/22 00:57:06;;;;;;;37.30;17.90;;;;;;;15.99;100.00;99269.06;5165030;27;20034;-92
2022/10/22 00:59:32;;;;;;;32.63;17.35;;;;;;;15.89;100.00;99248.91;5165160;27;20043;-92
2022/10/22 01:01:58;;;;;;;32.28;16.50;;;;;;;16.02;100.00;99275.16;5165390;27;20042;-93
2022/10/22 01:04:25;;;;;;;30.67;15.75;;;;;;;16.07;100.00;99268.72;5166894;27;20043;-93
2022/10/22 01:06:51;;;;;;;30.70;16.02;;;;;;;16.05;100.00;99263.47;5162601;27;20027;-91
2022/10/22 01:09:29;;;;;;;31.35;14.70;;;;;;;16.02;100.00;99263.56;5167802;27;20042;-91
2022/10/22 01:12:06;;;;;;;29.45;14.68;;;;;;;16.02;100.00;99256.38;5166670;27;20046;-93
2022/10/22 01:14:44;;;;;;;26.98;14.02;;;;;;;16.01;100.00;99254.66;5170628;27;20049;-93
2022/10/22 01:17:17;;;;;;;28.30;15.35;;;;;;;16.12;100.00;99270.31;5165067;27;20038;-92
2022/10/22 01:20:04;;;;;;;30.35;13.65;;;;;;;16.06;100.00;99264.31;5163075;27;20038;-91
2022/10/22 01:22:37;;;;;;;27.05;14.63;;;;;;;15.99;100.00;99255.66;5168428;27;20483;-93
2022/10/22 01:25:09;;;;;;;26.30;14.07;;;;;;;15.97;100.00;99246.81;5168728;27;20514;-93
2022/10/22 01:27:56;;;;;;;32.58;14.68;;;;;;;15.94;100.00;99266.59;5167294;27;20117;-93
2022/10/22 01:30:24;;;;;;;26.50;13.98;;;;;;;16.02;100.00;99264.44;5162053;27;20035;-92
2022/10/22 01:32:54;;;;;;;27.27;14.18;;;;;;;16.07;100.00;99263.38;5167874;27;20039;-92
2022/10/22 01:35:25;;;;;;;28.23;13.65;;;;;;;15.99;100.00;99247.63;5162706;27;20050;-91
2022/10/22 01:37:54;;;;;;;27.58;13.93;;;;;;;16.09;100.00;99243.63;5162411;27;20057;-92
2022/10/22 01:40:22;;;;;;;24.15;12.82;;;;;;;16.13;100.00;99237.16;5166945;27;20398;-93
2022/10/22 01:42:57;;;;;;;29.77;13.98;;;;;;;16.10;99.97;99234.63;5169902;27;20050;-93
2022/10/22 01:45:25;;;;;;;29.60;13.65;;;;;;;16.08;99.65;99236.50;5164125;27;20045;-92
2022/10/22 01:47:59;;;;;;;23.10;12.95;;;;;;;16.01;99.96;99226.97;5165645;27;20038;-93
2022/10/22 01:50:39;;;;;;;27.52;13.25;;;;;;;15.96;99.96;99220.91;5168297;27;20034;-92
2022/10/22 01:53:31;;;;;;;26.13;12.98;;;;;;;15.91;100.00;99218.41;5166066;27;20058;-92
2022/10/22 01:56:17;;;;;;;27.02;14.10;;;;;;;15.98;100.00;99238.69;5134879;27;20514;-94
2022/10/22 01:58:51;;;;;;;28.42;13.23;;;;;;;15.95;100.00;99232.56;5166152;27;20058;-92
2022/10/22 02:01:25;;;;;;;23.52;12.63;;;;;;;16.00;100.00;99249.34;5168280;27;20034;-93
2022/10/22 02:03:59;;;;;;;25.77;12.98;;;;;;;15.94;100.00;99233.50;5164029;27;20042;-92
2022/10/22 02:06:28;;;;;;;23.00;13.38;;;;;;;15.92;100.00;99230.03;5168731;27;20067;-92
2022/10/22 02:08:56;;;;;;;25.85;13.65;;;;;;;15.92;100.00;99224.66;5167600;27;20042;-92
2022/10/22 02:11:22;;;;;;;24.17;12.65;;;;;;;15.78;100.00;99209.13;5164455;27;20491;-92
2022/10/22 02:13:51;;;;;;;25.98;13.73;;;;;;;15.80;100.00;99218.00;5166882;27;20050;-92
2022/10/22 02:16:24;;;;;;;27.40;13.73;;;;;;;15.76;100.00;99203.81;5169780;27;20113;-93
2022/10/22 02:18:54;;;;;;;30.05;13.30;;;;;;;15.84;100.00;99211.56;5170155;27;20049;-94
2022/10/22 02:21:19;;;;;;;25.15;12.93;;;;;;;15.75;100.00;99198.53;5171713;27;20041;-93
2022/10/22 02:23:46;;;;;;;22.90;12.75;;;;;;;15.78;100.00;99193.91;5167755;27;20129;-91
2022/10/22 02:26:19;;;;;;;26.10;13.10;;;;;;;15.75;100.00;99188.69;5168639;27;20500;-92
2022/10/22 02:28:56;;;;;;;27.17;13.07;;;;;;;15.84;100.00;99208.88;5162333;27;20098;-91
2022/10/22 02:31:27;;;;;;;24.58;13.00;;;;;;;15.89;100.00;99204.19;5167102;27;20059;-92
2022/10/22 02:33:56;;;;;;;25.67;12.45;;;;;;;15.84;100.00;99200.84;5165674;27;20042;-92
2022/10/22 02:36:23;;;;;;;23.92;13.23;;;;;;;15.88;100.00;99198.91;5164097;27;20034;-94
2022/10/22 02:38:50;;;;;;;24.75;12.88;;;;;;;15.89;99.57;99180.06;5161995;27;20395;-92
2022/10/22 02:41:17;;;;;;;25.23;13.63;;;;;;;15.88;99.20;99169.41;5172894;27;20042;-93
2022/10/22 02:43:47;;;;;;;23.75;12.93;;;;;;;15.96;99.81;99194.06;5167177;27;20042;-92
2022/10/22 02:46:13;;;;;;;26.48;12.52;;;;;;;15.87;99.41;99187.28;5168226;27;20043;-92
2022/10/22 02:48:40;;;;;;;23.08;12.23;;;;;;;15.85;99.63;99181.13;5168144;27;20038;-93
2022/10/22 02:51:06;;;;;;;24.17;12.20;;;;;;;15.89;99.34;99180.06;5166963;27;20483;-93
2022/10/22 02:53:32;;;;;;;23.60;12.82;;;;;;;15.93;99.39;99189.72;5167175;27;20047;-92
2022/10/22 02:55:58;;;;;;;24.23;12.63;;;;;;;15.92;99.50;99187.13;5164984;27;20484;-93
2022/10/22 02:58:24;;;;;;;25.60;12.48;;;;;;;16.00;99.36;99195.69;5162972;27;20034;-92
2022/10/22 03:00:50;;;;;;;24.50;12.73;;;;;;;15.97;99.42;99180.59;5165560;27;20087;-94
2022/10/22 03:03:16;;;;;;;26.25;12.73;;;;;;;16.00;99.53;99187.66;5162231;27;20036;-93
2022/10/22 03:05:43;;;;;;;23.10;12.43;;;;;;;16.11;99.05;99206.88;5168220;27;20046;-93
2022/10/22 03:08:09;;;;;;;22.08;12.07;;;;;;;16.01;99.06;99179.53;5164645;27;20444;-92
2022/10/22 03:10:35;;;;;;;24.63;13.15;;;;;;;16.11;98.51;99188.09;5166122;27;20046;-94
2022/10/22 03:13:00;;;;;;;22.70;11.98;;;;;;;16.21;98.24;99200.13;5162542;27;20065;-94
2022/10/22 03:15:26;;;;;;;23.20;11.82;;;;;;;16.22;97.32;99182.22;5172233;27;20134;-92
2022/10/22 03:17:52;;;;;;;25.02;12.10;;;;;;;16.21;97.10;99177.81;5164976;27;20135;-92
2022/10/22 03:20:18;;;;;;;23.80;11.82;;;;;;;16.38;97.03;99202.09;5166789;27;20065;-93
2022/10/22 03:22:46;;;;;;;21.50;12.15;;;;;;;16.28;97.75;99176.59;5177381;27;20072;-92
2022/10/22 03:25:18;;;;;;;26.25;13.73;;;;;;;16.29;97.89;99177.50;5167048;27;20066;-93
2022/10/22 03:27:45;;;;;;;24.80;12.57;;;;;;;16.27;98.16;99182.91;5170798;27;20121;-93
2022/10/22 03:30:11;;;;;;;23.33;12.13;;;;;;;16.15;98.15;99175.38;5170641;27;20491;-92
2022/10/22 03:32:37;;;;;;;24.23;12.55;;;;;;;16.23;97.59;99184.84;5170562;27;20130;-93
2022/10/22 03:35:04;;;;;;;24.20;12.63;;;;;;;16.18;97.72;99173.47;5173164;27;20129;-92
2022/10/22 03:37:31;;;;;;;23.20;11.73;;;;;;;16.18;97.71;99181.50;5170214;27;20113;-93
2022/10/22 03:39:58;;;;;;;22.48;11.98;;;;;;;16.30;98.29;99206.06;5165051;27;20039;-94
2022/10/22 03:42:24;;;;;;;21.52;11.75;;;;;;;16.21;97.70;99189.41;5175072;27;20046;-91
2022/10/22 03:44:50;;;;;;;27.23;12.00;;;;;;;16.28;97.32;99191.84;5174421;27;20469;-92
2022/10/22 03:47:16;;;;;;;22.55;11.35;;;;;;;16.43;96.94;99201.88;5171452;27;20027;-95
2022/10/22 03:49:42;;;;;;;23.25;11.95;;;;;;;16.39;96.63;99192.22;5174135;27;20038;-92
2022/10/22 03:52:10;;;;;;;21.42;11.35;;;;;;;16.39;96.13;99200.28;5169115;27;20088;-93
2022/10/22 03:54:37;;;;;;;18.93;11.33;;;;;;;16.37;96.28;99202.16;5168438;27;20038;-93
2022/10/22 03:57:05;;;;;;;21.25;11.48;;;;;;;16.38;96.09;99203.91;5168375;27;20046;-93
2022/10/22 03:59:34;;;;;;;21.33;11.50;;;;;;;16.37;96.43;99210.22;5171873;27;20090;-94
2022/10/22 04:02:00;;;;;;;21.10;11.10;;;;;;;16.52;95.77;99214.91;5175693;27;20099;-94
2022/10/22 04:04:25;;;;;;;20.67;11.43;;;;;;;16.43;94.99;99194.69;5173693;27;20062;-92
2022/10/22 04:06:51;;;;;;;19.77;11.00;;;;;;;16.62;94.51;99207.31;5170030;27;20065;-94
2022/10/22 04:09:17;;;;;;;21.92;11.18;;;;;;;16.57;94.62;99206.66;5166019;27;20038;-95
2022/10/22 04:11:43;;;;;;;25.25;12.05;;;;;;;16.57;94.14;99210.22;5168809;27;20060;-93
2022/10/22 04:14:11;;;;;;;20.25;10.68;;;;;;;16.62;93.96;99208.19;5171586;27;20053;-93
2022/10/22 04:16:38;;;;;;;21.27;10.88;;;;;;;16.54;93.74;99193.38;5172204;27;20039;-93
2022/10/22 04:19:04;;;;;;;19.65;10.88;;;;;;;16.51;93.70;99185.47;5174449;27;20046;-92
2022/10/22 04:21:30;;;;;;;19.35;10.80;;;;;;;16.58;93.06;99203.03;5170956;27;20042;-94
2022/10/22 04:23:56;;;;;;;20.92;10.57;;;;;;;16.60;93.45;99204.69;5172356;27;20045;-93
2022/10/22 04:26:22;;;;;;;18.52;10.82;;;;;;;16.67;91.91;99204.44;5169555;27;20066;-93
2022/10/22 04:28:50;;;;;;;22.65;10.52;;;;;;;16.75;91.31;99219.25;5170781;27;20042;-93
2022/10/22 04:31:19;;;;;;;21.15;10.45;;;;;;;16.60;91.01;99193.09;5168604;27;20035;-95
2022/10/22 04:33:45;;;;;;;21.15;10.45;;;;;;;16.70;90.70;99215.91;5166060;27;20061;-93
2022/10/22 04:36:13;;;;;;;19.60;10.73;;;;;;;16.71;90.64;99216.78;5170511;27;20034;-95
2022/10/22 04:38:40;;;;;;;15.57;9.40;;;;;;;16.55;90.93;99203.19;5166036;27;20037;-94
2022/10/22 04:41:10;;;;;;;19.60;10.60;;;;;;;16.70;90.06;99231.13;5170960;27;20274;-94
2022/10/22 04:43:36;;;;;;;19.48;10.60;;;;;;;16.74;88.82;99222.00;5169632;27;20031;-92
2022/10/22 04:46:03;;;;;;;17.27;9.73;;;;;;;16.78;89.41;99231.66;5170482;27;20082;-92
2022/10/22 04:48:30;;;;;;;18.35;9.07;;;;;;;16.69;89.45;99226.72;5174254;27;20415;-93
2022/10/22 04:50:56;;;;;;;18.05;9.73;;;;;;;16.72;89.53;99235.53;5171795;27;20058;-94
2022/10/22 04:53:22;;;;;;;17.33;9.25;;;;;;;16.68;88.57;99227.66;5178699;27;20026;-93
2022/10/22 04:55:48;;;;;;;18.13;9.68;;;;;;;16.75;88.77;99242.56;5167840;27;20129;-92
2022/10/22 04:58:14;;;;;;;18.40;9.45;;;;;;;16.53;88.99;99210.44;5172333;27;20030;-93
2022/10/22 05:00:40;;;;;;;16.65;9.75;;;;;;;16.79;87.96;99242.34;5171959;27;20080;-93
2022/10/22 05:03:06;;;;;;;16.40;9.68;;;;;;;16.60;88.24;99210.06;5169835;27;20046;-92
2022/10/22 05:05:33;;;;;;;16.38;9.43;;;;;;;16.66;88.25;99221.50;5176121;27;20396;-94
2022/10/22 05:07:59;;;;;;;19.23;9.90;;;;;;;16.64;88.35;99230.47;5176100;27;20057;-93
2022/10/22 05:10:25;;;;;;;17.13;9.02;;;;;;;16.55;88.74;99211.22;5178861;27;20042;-93
2022/10/22 05:12:51;;;;;;;19.00;9.38;;;;;;;16.45;89.28;99200.00;5168497;27;20372;-94
2022/10/22 05:15:16;;;;;;;17.70;9.77;;;;;;;16.46;89.31;99207.16;5175323;27;20062;-93
2022/10/22 05:17:42;;;;;;;17.30;9.30;;;;;;;16.58;89.15;99227.19;5175747;27;20045;-92
2022/10/22 05:20:09;;;;;;;15.88;9.20;;;;;;;16.51;89.56;99225.72;5174207;27;20035;-93
2022/10/22 05:22:36;;;;;;;18.73;9.77;;;;;;;16.46;89.30;99200.88;5169100;27;20060;-92
2022/10/22 05:25:03;;;;;;;17.17;9.88;;;;;;;16.54;89.02;99212.16;5171944;27;20125;-93
2022/10/22 05:27:28;;;;;;;17.65;9.13;;;;;;;16.48;89.32;99205.25;5171739;27;20035;-95
2022/10/22 05:29:54;;;;;;;17.23;9.32;;;;;;;16.36;89.48;99189.69;5174241;27;20106;-94
2022/10/22 05:32:20;;;;;;;15.02;9.05;;;;;;;16.32;90.16;99191.63;5187519;27;20041;-94
2022/10/22 05:34:46;;;;;;;17.27;8.90;;;;;;;16.35;90.23;99199.56;5169589;27;20047;-95
2022/10/22 05:37:12;;;;;;;20.17;9.75;;;;;;;16.27;90.44;99174.00;5169723;27;20034;-94
2022/10/22 05:39:40;;;;;;;21.25;9.88;;;;;;;16.27;90.99;99184.72;5172709;27;20049;-94
2022/10/22 05:42:06;;;;;;;21.02;10.40;;;;;;;16.19;91.18;99168.94;5172726;27;20098;-95
2022/10/22 05:44:32;;;;;;;18.48;10.68;;;;;;;16.17;91.45;99165.47;5178058;27;20072;-95
2022/10/22 05:46:58;;;;;;;17.10;9.20;;;;;;;16.11;91.85;99155.88;5172631;27;20074;-95
2022/10/22 05:49:24;;;;;;;18.50;10.00;;;;;;;16.08;92.27;99161.38;5175227;27;20121;-91
2022/10/22 05:51:49;;;;;;;20.63;10.65;;;;;;;16.23;91.78;99179.47;5160365;27;20114;-93
2022/10/22 05:54:18;;;;;;;17.88;9.70;;;;;;;16.17;92.48;99185.09;5166071;27;20095;-94
2022/10/22 05:56:45;;;;;;;;;;;;;;;16.18;92.77;99186.88;5166394;27;20049;-93
2022/10/22 05:59:11;;;;;;;19.23;9.85;;;;;;;16.08;93.15;99160.50;5167914;27;19919;-93
2022/10/22 06:01:39;;;;;;;16.90;10.02;;;;;;;16.17;92.36;99177.06;5172762;27;20395;-93
2022/10/22 06:04:08;;;;;;;16.63;9.15;;;;;;;16.04;92.51;99149.03;5167811;27;20043;-95
2022/10/22 06:06:38;;;;;;;24.23;10.00;;;;;;;16.15;92.38;99170.88;5172058;27;20066;-93
2022/10/22 06:09:10;;;;;;;17.13;9.52;;;;;;;16.08;92.65;99152.47;5158461;27;20047;-94
2022/10/22 06:11:36;;;;;;;19.90;10.13;;;;;;;16.09;92.51;99164.91;5166383;27;20499;-93
2022/10/22 06:14:03;;;;;;;19.25;9.40;;;;;;;16.17;92.78;99178.88;5166323;27;20042;-93
2022/10/22 06:16:30;;;;;;;19.13;9.43;;;;;;;16.12;92.65;99172.84;5162788;27;20038;-94
2022/10/22 06:18:58;;;;;;;19.08;10.10;;;;;;;16.26;92.21;99186.53;5165595;27;20042;-94
2022/10/22 06:21:24;;;;;;;17.07;8.60;;;;;;;16.40;91.24;99202.91;5165819;27;20039;-93
2022/10/22 06:23:50;;;;;;;20.30;9.40;;;;;;;16.43;91.17;99196.53;5173766;27;20288;-94
2022/10/22 06:26:16;;;;;;;16.30;8.88;;;;;;;16.44;90.97;99200.97;5163940;27;20764;-94
2022/10/22 06:28:42;;;;;;;18.52;9.05;;;;;;;16.43;91.04;99202.75;5163817;27;20118;-93
2022/10/22 06:31:10;;;;;;;23.55;9.52;;;;;;;16.53;90.10;99208.59;5160560;27;20102;-92
2022/10/22 06:33:41;;;;;;;14.43;8.13;;;;;;;16.67;89.34;99215.16;5167650;27;20125;-94
2022/10/22 06:36:09;;;;;;;14.77;8.55;;;;;;;16.73;88.37;99206.84;5169405;27;20035;-93
2022/10/22 06:38:34;;;;;;;15.80;8.27;;;;;;;16.88;87.83;99227.66;5165357;27;20121;-95
2022/10/22 06:41:05;;;;;;;18.38;8.65;;;;;;;16.97;87.95;99248.72;5165784;27;20122;-92
2022/10/22 06:43:31;;;;;;;14.98;8.50;;;;;;;16.88;87.47;99234.84;5162845;27;20034;-92
2022/10/22 06:46:00;;;;;;;14.43;8.77;;;;;;;16.95;87.19;99228.25;5172382;27;20388;-92
2022/10/22 06:48:28;;;;;;;18.08;9.07;;;;;;;17.08;86.92;99242.00;5163453;27;20069;-91
2022/10/22 06:50:54;;;;;;;15.52;8.27;;;;;;;17.14;87.21;99247.09;5168757;27;20351;-92
2022/10/22 06:53:20;;;;;;;14.48;8.27;;;;;;;17.17;86.77;99249.63;5171281;27;20074;-94
2022/10/22 06:55:46;;;;;;;22.98;9.38;;;;;;;17.23;85.78;99260.97;5160555;27;20550;-93
2022/10/22 06:58:11;;;;;;;18.50;8.48;;;;;;;17.18;85.88;99246.00;5165574;27;20039;-94
2022/10/22 07:00:37;;;;;;;15.18;8.13;;;;;;;17.30;85.85;99261.53;5168297;27;20065;-94
2022/10/22 07:03:03;;;;;;;15.52;8.82;;;;;;;17.27;85.38;99242.88;5169058;27;20054;-94
2022/10/22 07:05:32;;;;;;;22.67;8.75;;;;;;;17.22;86.50;99255.69;5161902;27;20042;-93
2022/10/22 07:07:58;;;;;;;19.17;8.75;;;;;;;17.31;85.68;99255.25;5166583;27;20495;-94
2022/10/22 07:10:24;;;;;;;19.25;8.57;;;;;;;17.32;86.25;99270.41;5164631;27;20133;-93
2022/10/22 07:12:50;;;;;;;18.30;8.93;;;;;;;17.35;86.28;99267.59;5163298;27;20126;-91
2022/10/22 07:15:16;;;;;;;19.33;8.68;;;;;;;17.40;86.02;99265.56;5168646;27;20046;-92
2022/10/22 07:17:41;;;;;;;19.45;8.90;;;;;;;17.38;85.72;99255.81;5166099;27;20027;-94
2022/10/22 07:20:08;;;;;;;14.95;9.27;;;;;;;17.53;85.40;99287.38;5166448;27;20034;-92
2022/10/22 07:22:36;;;;;;;12.90;7.88;;;;;;;17.59;84.97;99264.69;5172466;27;20095;-94
2022/10/22 07:25:02;;;;;;;19.13;8.35;;;;;;;17.66;85.03;99293.03;5169513;27;20038;-92
2022/10/22 07:27:28;;;;;;;17.35;8.55;;;;;;;17.66;85.61;99280.44;5168535;27;20669;-91
2022/10/22 07:29:54;;;;;;;14.70;7.72;;;;;;;17.78;85.29;99294.25;5170040;27;20046;-93
2022/10/22 07:32:20;;;;;;;15.95;7.82;;;;;;;17.92;84.41;99296.31;5166500;27;20505;-92
2022/10/22 07:34:45;;;;;;;15.85;8.18;;;;;;;17.93;83.58;99289.97;5164563;27;20041;-94
2022/10/22 07:37:11;;;;;;;14.00;7.75;;;;;;;17.95;83.67;99285.41;5164711;27;20487;-93
2022/10/22 07:39:38;;;;;;;18.83;8.48;;;;;;;17.94;84.20;99313.25;5172311;27;20706;-92
2022/10/22 07:42:04;;;;;;;22.20;9.63;;;;;;;17.88;85.49;99302.78;5164992;27;20077;-93
2022/10/22 07:44:30;;;;;;;19.55;9.05;;;;;;;17.96;84.27;99295.22;5165946;27;20035;-93
2022/10/22 07:46:56;;;;;;;23.05;8.38;;;;;;;17.94;85.04;99298.00;5166195;27;20060;-94
2022/10/22 07:49:22;;;;;;;17.48;8.30;;;;;;;17.90;84.65;99285.63;5165888;27;20045;-92
2022/10/22 07:51:48;;;;;;;15.18;7.95;;;;;;;18.15;84.55;99311.31;5162206;27;20054;-92
2022/10/22 07:54:13;;;;;;;17.30;8.52;;;;;;;18.19;84.25;99302.16;5170786;27;20038;-93
2022/10/22 07:56:41;;;;;;;14.68;8.32;;;;;;;18.29;83.60;99316.91;5163554;27;20050;-95
2022/10/22 07:59:07;;;;;;;20.42;8.70;;;;;;;18.35;83.08;99311.22;5169695;27;20035;-95
2022/10/22 08:01:32;;;;;;;13.63;7.88;;;;;;;18.52;83.08;99323.84;5167831;27;20110;-95
2022/10/22 08:03:58;;;;;;;16.05;8.00;;;;;;;18.45;83.59;99317.00;5174749;27;20049;-92
2022/10/22 08:06:24;;;;;;;17.80;8.57;;;;;;;18.40;83.82;99319.06;5167277;27;20074;-91
2022/10/22 08:08:50;;;;;;;15.13;7.70;;;;;;;18.35;83.36;99305.84;5179699;27;20034;-92
2022/10/22 08:11:22;;;;;;;16.30;7.60;;;;;;;18.36;83.90;99322.84;5166513;27;20066;-95
2022/10/22 08:13:49;;;;;;;16.60;7.38;;;;;;;18.23;84.71;99306.44;5171016;27;20507;-94
2022/10/22 08:16:15;;;;;;;15.20;7.30;;;;;;;18.18;84.41;99311.19;5171279;27;20046;-92
2022/10/22 08:18:41;;;;;;;15.40;8.45;;;;;;;18.23;84.66;99315.38;5171604;27;20405;-93
2022/10/22 08:21:07;;;;;;;16.75;7.35;;;;;;;18.29;84.60;99318.72;5169053;27;20106;-93
2022/10/22 08:23:33;;;;;;;16.48;8.15;;;;;;;18.34;84.41;99311.28;5165761;27;20027;-92
2022/10/22 08:25:59;;;;;;;15.82;8.35;;;;;;;18.42;84.72;99330.63;5177225;27;20042;-94
2022/10/22 08:28:27;;;;;;;21.17;9.00;;;;;;;18.44;85.18;99328.72;5177960;27;20475;-94
2022/10/22 08:30:55;;;;;;;24.10;10.27;;;;;;;18.48;84.27;99325.81;5166153;27;20070;-92
2022/10/22 08:33:21;;;;;;;23.50;10.35;;;;;;;18.60;84.02;99344.97;5170311;27;20039;-94
2022/10/22 08:35:50;;;;;;;22.58;7.82;;;;;;;18.51;84.29;99319.38;5168846;27;20071;-93
2022/10/22 08:38:17;;;;;;;15.20;8.50;;;;;;;18.73;84.20;99345.22;5165893;27;20034;-94
2022/10/22 08:40:47;;;;;;;18.75;8.77;;;;;;;18.68;84.05;99335.56;5174926;27;20057;-95
2022/10/22 08:43:34;;;;;;;18.45;8.52;;;;;;;18.74;83.99;99331.69;5172633;27;20043;-94
2022/10/22 08:46:14;;;;;;;20.70;7.88;;;;;;;18.94;83.06;99333.38;5176353;27;20039;-96
2022/10/22 08:48:45;;;;;;;17.88;7.75;;;;;;;19.16;82.18;99334.94;5176515;27;20042;-95
2022/10/22 08:51:15;;;;;;;18.20;9.02;;;;;;;19.46;80.76;99352.16;5177288;27;20043;-95
2022/10/22 08:53:51;;;;;;;23.83;10.23;;;;;;;19.61;79.73;99328.88;5173382;27;20599;-93
2022/10/22 08:56:17;;;;;;;14.43;7.95;;;;;;;19.72;80.29;99344.50;5171656;27;20034;-93
2022/10/22 08:58:48;;;;;;;14.23;8.43;;;;;;;19.81;79.95;99354.78;5168560;27;20068;-93
2022/10/22 09:01:22;;;;;;;17.75;8.80;;;;;;;19.69;79.83;99331.13;5171610;27;20058;-94
2022/10/22 09:07:26;;;;;;;16.73;8.32;;;;;;;19.68;80.25;99335.66;5148662;27;20425;-95
2022/10/22 09:12:48;;;;;;;23.15;8.93;;;;;;;19.97;80.12;99357.47;5125079;28;20047;-95
2022/10/22 09:15:16;;;;;;;15.30;8.40;;;;;;;20.08;79.16;99333.47;5116401;28;20097;-94
2022/10/22 09:17:54;;;;;;;18.17;8.63;;;;;;;20.84;77.13;99356.09;5113735;28;20127;-94
2022/10/22 09:20:27;;;;;;;16.63;8.32;;;;;;;21.39;74.49;99339.19;5109796;28;20130;-93
2022/10/22 09:23:01;;;;;;;14.20;8.20;;;;;;;21.90;72.61;99338.72;5110249;28;20054;-91
2022/10/22 09:25:29;;;;;;;15.52;8.10;;;;;;;21.78;70.24;99310.59;5111809;28;20119;-94
2022/10/22 09:27:57;;;;;;;15.25;8.23;;;;;;;22.09;71.11;99331.13;5111415;28;20063;-93
2022/10/22 09:30:25;;;;;;;16.75;8.98;;;;;;;22.18;69.93;99326.06;5111264;28;20042;-94
2022/10/22 09:32:59;;;;;;;15.38;7.65;;;;;;;22.19;70.50;99338.66;5111908;28;20542;-94
2022/10/22 09:35:25;;;;;;;16.17;7.57;;;;;;;21.79;70.96;99339.41;5105035;28;20032;-91
2022/10/22 09:37:52;;;;;;;19.23;8.80;;;;;;;21.56;71.82;99329.16;5109031;28;20102;-92
2022/10/22 09:40:20;;;;;;;19.15;9.15;;;;;;;21.62;71.52;99345.03;5113837;28;20090;-92
2022/10/22 09:42:46;;;;;;;17.73;10.00;;;;;;;21.56;71.87;99337.28;5108929;28;20060;-92
2022/10/22 09:45:18;;;;;;;17.98;8.20;;;;;;;21.35;72.89;99326.81;5111592;28;20040;-93
2022/10/22 09:47:44;;;;;;;11.80;7.97;;;;;;;21.40;73.02;99349.03;5112581;28;20044;-92
2022/10/22 09:50:26;;;;;;;15.68;6.85;;;;;;;20.97;73.93;99329.19;5112948;28;20040;-94
2022/10/22 09:53:06;;;;;;;15.00;7.32;;;;;;;21.05;74.98;99362.03;5114698;28;20051;-94
2022/10/22 09:55:37;;;;;;;16.02;7.88;;;;;;;21.08;73.92;99348.34;5114612;28;20416;-95
2022/10/22 09:58:03;;;;;;;18.45;8.55;;;;;;;20.81;74.53;99324.72;5115324;28;20046;-95
2022/10/22 10:00:30;;;;;;;19.30;8.65;;;;;;;20.80;74.77;99328.41;5116737;28;20058;-95
2022/10/22 10:02:58;;;;;;;19.42;8.52;;;;;;;20.72;75.38;99327.97;5110911;28;20468;-95
2022/10/22 10:05:29;;;;;;;17.92;7.70;;;;;;;20.70;74.72;99333.47;5116889;28;20093;-94
2022/10/22 10:07:56;;;;;;;20.60;8.65;;;;;;;20.75;74.33;99326.91;5118157;28;20063;-93
2022/10/22 10:10:33;;;;;;;20.55;8.73;;;;;;;20.85;73.96;99323.56;5118887;28;20051;-92
2022/10/22 10:13:17;;;;;;;20.20;8.55;;;;;;;21.06;73.83;99318.69;5122478;27;20069;-92
2022/10/22 10:15:53;;;;;;;19.50;7.97;;;;;;;21.00;74.03;99315.50;5114743;28;20082;-95
2022/10/22 10:18:32;;;;;;;19.50;8.20;;;;;;;20.91;74.58;99315.09;5097182;28;20044;-92
2022/10/22 10:21:08;;;;;;;25.67;8.05;;;;;;;20.69;74.18;99318.22;5101245;28;20048;-95
2022/10/22 10:23:45;;;;;;;14.02;7.40;;;;;;;20.91;73.83;99333.16;5102002;28;20429;-91
2022/10/22 10:26:19;;;;;;;14.02;7.60;;;;;;;21.03;74.40;99315.28;5101802;28;20079;-94
2022/10/22 10:29:00;;;;;;;16.30;7.40;;;;;;;21.27;72.48;99318.31;5099709;28;20520;-95
2022/10/22 10:31:37;;;;;;;18.20;7.78;;;;;;;21.27;72.63;99299.38;5100955;28;20051;-94
2022/10/22 10:34:14;;;;;;;17.27;7.65;;;;;;;21.36;71.74;99306.03;5100823;28;20055;-91
2022/10/22 10:36:51;;;;;;;17.58;8.00;;;;;;;21.36;71.83;99309.66;5100654;28;20389;-94
2022/10/22 10:39:22;;;;;;;17.35;8.55;;;;;;;21.38;72.40;99298.69;5102099;28;20044;-94
2022/10/22 10:42:00;;;;;;;17.13;8.13;;;;;;;21.33;72.22;99312.53;5102314;28;20048;-94
2022/10/22 10:45:02;;;;;;;18.40;8.77;;;;;;;21.22;72.32;99298.81;5099976;28;20480;-95
2022/10/22 10:48:10;;;;;;;17.88;7.50;;;;;;;21.19;72.31;99309.81;5059424;28;20537;-93
2022/10/22 10:50:48;;;;;;;20.35;7.57;;;;;;;21.04;72.94;99292.72;5001619;28;20097;-94
2022/10/22 10:53:25;;;;;;;18.23;8.30;;;;;;;21.00;72.96;99297.44;4987227;28;20047;-95
2022/10/22 10:56:01;;;;;;;17.88;9.02;;;;;;;20.96;73.25;99304.00;4984460;28;20151;-94
2022/10/22 10:58:39;;;;;;;19.05;9.05;;;;;;;20.93;73.59;99293.38;4982429;28;20046;-96
2022/10/22 11:01:15;;;;;;;15.45;7.75;;;;;;;21.07;73.31;99298.78;4983547;28;20074;-96
2022/10/22 11:04:16;;;;;;;21.10;8.80;;;;;;;21.15;72.46;99292.91;4984146;28;20046;-95
2022/10/22 11:07:18;;;;;;;22.13;8.80;;;;;;;21.13;72.13;99287.59;4943248;29;20074;-96
2022/10/22 11:09:52;;;;;;;14.75;9.30;;;;;;;21.13;72.30;99278.63;4947665;29;20079;-96
2022/10/22 11:12:26;;;;;;;16.88;8.00;;;;;;;21.03;73.09;99288.25;4927403;29;20071;-94
2022/10/22 11:15:01;;;;;;;19.63;8.40;;;;;;;21.08;72.32;99280.75;4932991;29;20043;-94
2022/10/22 11:17:34;;;;;;;16.83;8.75;;;;;;;21.06;72.82;99288.09;4946284;29;20072;-96
2022/10/22 11:20:04;;;;;;;22.20;8.93;;;;;;;20.98;72.65;99282.28;4942736;29;20048;-96
2022/10/22 11:22:35;;;;;;;17.13;7.88;;;;;;;20.98;72.72;99258.81;5016326;28;20045;-94
2022/10/22 11:25:12;;;;;;;15.20;8.32;;;;;;;21.01;73.05;99274.81;5061199;28;20255;-95
2022/10/22 11:27:44;;;;;;;14.23;8.55;;;;;;;20.88;73.20;99263.03;5062147;28;20109;-95
2022/10/22 11:30:16;;;;;;;16.90;8.57;;;;;;;20.81;74.15;99261.69;5061081;28;20108;-94
2022/10/22 11:32:47;;;;;;;14.88;8.38;;;;;;;20.84;74.26;99269.59;5061518;28;20171;-94
2022/10/22 11:35:21;;;;;;;18.98;8.77;;;;;;;20.76;74.77;99263.81;5061177;28;20445;-94